createdAt,value
2019-05-02T00:01:21.953Z,2.30
2019-05-02T00:03:50.625Z,1.73
2019-05-02T00:06:19.259Z,2.03
2019-05-02T00:08:48.610Z,2.20
2019-05-02T00:11:17.747Z,1.60
2019-05-02T00:13:46.589Z,1.80
2019-05-02T00:16:15.528Z,1.90
2019-05-02T00:18:44.193Z,2.10
2019-05-02T00:21:12.913Z,2.03
2019-05-02T00:23:41.683Z,2.30
2019-05-02T00:26:10.476Z,2.00
2019-05-02T00:28:42.905Z,2.00
2019-05-02T00:31:11.517Z,1.87
2019-05-02T00:33:40.106Z,2.00
2019-05-02T00:36:08.708Z,2.20
2019-05-02T00:38:38.547Z,2.30
2019-05-02T00:41:07.664Z,1.90
2019-05-02T00:43:36.410Z,2.00
2019-05-02T00:46:05.177Z,1.80
2019-05-02T00:48:38.276Z,1.90
2019-05-02T00:51:06.804Z,2.00
2019-05-02T00:53:35.384Z,1.87
2019-05-02T00:56:05.132Z,2.30
2019-05-02T00:58:34.156Z,1.90
2019-05-02T01:01:10.421Z,2.27
2019-05-02T01:03:40.632Z,1.80
2019-05-02T01:06:13.671Z,2.07
2019-05-02T01:08:39.344Z,2.27
2019-05-02T01:11:08.113Z,2.43
2019-05-02T01:13:36.696Z,2.33
2019-05-02T01:16:05.226Z,2.40
2019-05-02T01:18:37.294Z,1.90
2019-05-02T01:21:04.284Z,2.07
2019-05-02T01:23:32.784Z,2.30
2019-05-02T01:26:01.290Z,2.00
2019-05-02T01:28:49.278Z,2.33
2019-05-02T01:31:37.141Z,2.10
2019-05-02T01:34:18.092Z,2.50
2019-05-02T01:37:04.174Z,2.77
2019-05-02T01:39:32.714Z,2.30
2019-05-02T01:42:04.169Z,2.10
2019-05-02T01:44:36.455Z,2.20
2019-05-02T01:47:01.789Z,2.50
2019-05-02T01:49:30.306Z,2.60
2019-05-02T01:51:58.773Z,2.27
2019-05-02T01:54:27.365Z,2.27
2019-05-02T01:56:56.191Z,2.10
2019-05-02T01:59:29.027Z,2.67
2019-05-02T02:01:57.975Z,2.93
2019-05-02T02:04:25.252Z,3.00
2019-05-02T02:06:53.771Z,2.70
2019-05-02T02:09:22.282Z,2.60
2019-05-02T02:11:50.843Z,1.97
2019-05-02T02:14:19.372Z,2.23
2019-05-02T02:16:48.112Z,2.83
2019-05-02T02:19:24.198Z,2.00
2019-05-02T02:21:57.571Z,2.40
2019-05-02T02:24:28.777Z,2.30
2019-05-02T02:26:57.282Z,2.20
2019-05-02T02:29:25.811Z,2.90
2019-05-02T02:31:54.307Z,2.90
2019-05-02T02:34:29.225Z,2.33
2019-05-02T02:36:53.068Z,2.67
2019-05-02T02:39:21.558Z,2.23
2019-05-02T02:41:52.354Z,2.27
2019-05-02T02:44:22.075Z,2.10
2019-05-02T02:46:52.313Z,2.10
2019-05-02T02:49:24.007Z,2.10
2019-05-02T02:51:51.119Z,2.07
2019-05-02T02:54:19.695Z,2.47
2019-05-02T02:56:48.290Z,2.27
2019-05-02T02:59:19.450Z,2.30
2019-05-02T03:01:47.015Z,1.83
2019-05-02T03:04:15.605Z,1.70
2019-05-02T03:06:46.966Z,2.37
2019-05-02T03:09:20.402Z,2.60
2019-05-02T03:11:49.516Z,2.60
2019-05-02T03:14:22.823Z,2.30
2019-05-02T03:16:51.382Z,2.40
2019-05-02T03:19:21.054Z,2.00
2019-05-02T03:21:54.256Z,1.87
2019-05-02T03:24:24.080Z,1.70
2019-05-02T03:26:55.254Z,1.90
2019-05-02T03:29:23.319Z,2.50
2019-05-02T03:32:12.456Z,3.60
2019-05-02T03:34:23.632Z,2.47
2019-05-02T03:36:52.291Z,2.10
2019-05-02T03:39:21.541Z,2.40
2019-05-02T03:41:55.464Z,1.90
2019-05-02T03:44:26.190Z,2.10
2019-05-02T03:46:54.517Z,2.20
2019-05-02T03:49:21.059Z,2.60
2019-05-02T03:51:55.795Z,2.23
2019-05-02T03:54:20.393Z,2.33
2019-05-02T03:56:51.042Z,2.67
2019-05-02T03:59:19.413Z,2.23
2019-05-02T04:01:48.460Z,2.73
2019-05-02T04:04:20.738Z,2.57
2019-05-02T04:06:47.738Z,3.17
2019-05-02T04:09:39.053Z,2.47
2019-05-02T04:12:05.014Z,2.43
2019-05-02T04:14:37.760Z,2.33
2019-05-02T04:17:04.155Z,2.50
2019-05-02T04:19:35.056Z,2.57
2019-05-02T04:22:08.697Z,3.37
2019-05-02T04:24:34.133Z,2.40
2019-05-02T04:27:02.774Z,2.60
2019-05-02T04:29:33.210Z,2.30
2019-05-02T04:32:04.716Z,2.33
2019-05-02T04:34:32.252Z,2.73
2019-05-02T04:37:03.883Z,2.70
2019-05-02T04:39:31.061Z,2.50
2019-05-02T04:42:05.239Z,2.33
2019-05-02T04:44:40.953Z,1.87
2019-05-02T04:47:10.928Z,2.53
2019-05-02T04:49:35.827Z,2.60
2019-05-02T04:52:07.077Z,1.87
2019-05-02T04:54:32.383Z,2.43
2019-05-02T04:57:02.338Z,2.10
2019-05-02T04:59:33.235Z,2.53
2019-05-02T05:02:01.723Z,2.13
2019-05-02T05:04:33.145Z,2.20
2019-05-02T05:07:01.207Z,2.00
2019-05-02T05:09:29.974Z,2.70
2019-05-02T05:12:02.412Z,2.47
2019-05-02T05:14:31.434Z,2.13
2019-05-02T05:16:59.036Z,2.17
2019-05-02T05:19:33.002Z,2.43
2019-05-02T05:22:05.003Z,2.00
2019-05-02T05:24:50.275Z,2.40
2019-05-02T05:27:22.650Z,2.17
2019-05-02T05:29:53.638Z,2.70
2019-05-02T05:32:19.315Z,2.00
2019-05-02T05:34:48.792Z,2.30
2019-05-02T05:40:28.199Z,2.40
2019-05-02T05:48:44.780Z,2.53
2019-05-02T05:51:17.052Z,2.40
2019-05-02T05:53:43.531Z,2.30
2019-05-02T05:56:13.613Z,2.27
2019-05-02T05:58:48.206Z,2.17
2019-05-02T06:01:12.614Z,2.77
2019-05-02T06:03:44.558Z,2.40
2019-05-02T06:06:14.831Z,2.20
2019-05-02T06:08:49.106Z,2.60
2019-05-02T06:11:19.910Z,2.50
2019-05-02T06:13:48.884Z,2.53
2019-05-02T06:16:16.669Z,2.90
2019-05-02T06:18:45.282Z,3.00
2019-05-02T06:21:16.886Z,2.70
2019-05-02T06:23:44.385Z,2.93
2019-05-02T06:26:13.863Z,3.20
2019-05-02T06:28:43.331Z,3.10
2019-05-02T06:31:11.960Z,2.77
2019-05-02T06:33:40.739Z,2.80
2019-05-02T06:36:09.270Z,2.53
2019-05-02T06:38:37.817Z,3.03
2019-05-02T06:41:06.320Z,2.90
2019-05-02T06:43:34.870Z,2.80
2019-05-02T06:46:15.587Z,2.37
2019-05-02T06:48:33.674Z,3.33
2019-05-02T06:51:11.066Z,3.37
2019-05-02T06:53:41.258Z,4.57
2019-05-02T06:56:07.942Z,3.77
2019-05-02T06:58:41.779Z,4.00
2019-05-02T07:01:07.745Z,3.93
2019-05-02T07:03:36.253Z,3.67
2019-05-02T07:06:07.530Z,3.33
2019-05-02T07:08:35.165Z,3.47
2019-05-02T07:11:03.937Z,3.50
2019-05-02T07:13:36.172Z,3.60
2019-05-02T07:16:04.413Z,3.30
2019-05-02T07:18:52.525Z,3.17
2019-05-02T07:21:23.547Z,2.50
2019-05-02T07:23:53.644Z,8.23
2019-05-02T07:26:23.305Z,2.20
2019-05-02T07:28:51.988Z,2.37
2019-05-02T07:31:20.594Z,2.50
2019-05-02T07:33:49.136Z,1.97
2019-05-02T07:36:17.719Z,1.60
2019-05-02T07:38:46.248Z,1.90
2019-05-02T07:41:15.037Z,2.00
2019-05-02T07:43:43.554Z,1.80
2019-05-02T07:46:16.277Z,1.93
2019-05-02T07:48:43.753Z,1.60
2019-05-02T07:51:12.334Z,1.70
2019-05-02T07:53:44.472Z,2.47
2019-05-02T07:56:12.404Z,2.47
2019-05-02T07:58:47.000Z,1.70
2019-05-02T08:01:13.507Z,2.03
2019-05-02T08:03:41.980Z,1.63
2019-05-02T08:06:10.473Z,2.00
2019-05-02T08:08:38.954Z,1.60
2019-05-02T08:11:07.617Z,1.80
2019-05-02T08:13:36.125Z,1.80
2019-05-02T08:16:04.726Z,2.50
2019-05-02T08:18:33.246Z,1.97
2019-05-02T08:21:01.747Z,2.00
2019-05-02T08:23:30.349Z,1.90
2019-05-02T08:25:58.864Z,1.83
2019-05-02T08:28:31.713Z,1.87
2019-05-02T08:31:00.228Z,1.80
2019-05-02T08:33:29.274Z,2.20
2019-05-02T08:35:58.994Z,1.83
2019-05-02T08:38:27.502Z,1.70
2019-05-02T08:40:56.111Z,1.93
2019-05-02T08:43:26.680Z,2.47
2019-05-02T08:45:55.276Z,2.50
2019-05-02T08:48:23.778Z,3.97
2019-05-02T08:50:52.241Z,3.57
2019-05-02T08:53:25.137Z,2.13
2019-05-02T08:55:53.648Z,2.57
2019-05-02T08:58:22.152Z,2.37
2019-05-02T09:00:50.725Z,2.70
2019-05-02T09:03:19.235Z,2.50
2019-05-02T09:05:47.808Z,2.70
2019-05-02T09:08:16.767Z,2.90
2019-05-02T09:10:46.003Z,2.97
2019-05-02T09:13:15.852Z,2.67
2019-05-02T09:15:49.623Z,2.93
2019-05-02T09:18:15.159Z,2.80
2019-05-02T09:20:46.978Z,2.67
2019-05-02T09:23:14.076Z,2.57
2019-05-02T09:25:43.084Z,2.57
2019-05-02T09:28:12.491Z,3.23
2019-05-02T09:30:41.903Z,2.53
2019-05-02T09:33:15.269Z,2.37
2019-05-02T09:35:43.775Z,2.30
2019-05-02T09:38:14.775Z,2.33
2019-05-02T09:40:47.327Z,2.30
2019-05-02T09:43:14.885Z,2.90
2019-05-02T09:45:44.215Z,2.37
2019-05-02T09:48:17.180Z,2.37
2019-05-02T09:50:49.185Z,2.40
2019-05-02T09:53:20.507Z,2.50
2019-05-02T09:55:50.065Z,2.77
2019-05-02T09:58:21.276Z,2.43
2019-05-02T10:00:52.415Z,2.37
2019-05-02T10:03:22.596Z,2.47
2019-05-02T10:05:52.328Z,2.50
2019-05-02T10:08:22.931Z,2.93
2019-05-02T10:10:52.188Z,2.57
2019-05-02T10:13:22.721Z,2.67
2019-05-02T10:15:52.784Z,2.70
2019-05-02T10:18:25.540Z,2.90
2019-05-02T10:20:52.387Z,3.00
2019-05-02T10:23:23.545Z,3.00
2019-05-02T10:25:52.262Z,3.00
2019-05-02T10:28:22.699Z,3.00
2019-05-02T10:30:52.691Z,3.73
2019-05-02T10:33:22.575Z,3.73
2019-05-02T10:35:52.548Z,3.50
2019-05-02T10:38:22.742Z,3.80
2019-05-02T10:40:54.628Z,3.70
2019-05-02T10:43:22.308Z,3.80
2019-05-02T10:45:58.513Z,3.60
2019-05-02T10:48:28.708Z,3.90
2019-05-02T10:51:15.037Z,4.33
2019-05-02T10:53:47.017Z,4.07
2019-05-02T10:56:13.895Z,4.60
2019-05-02T10:58:42.682Z,4.60
2019-05-02T11:01:12.883Z,4.23
2019-05-02T11:03:47.343Z,4.57
2019-05-02T11:06:13.432Z,4.20
2019-05-02T11:08:45.832Z,4.37
2019-05-02T11:11:12.754Z,4.80
2019-05-02T11:13:53.326Z,4.53
2019-05-02T11:16:36.113Z,4.70
2019-05-02T11:19:06.368Z,4.73
2019-05-02T11:21:34.975Z,4.70
2019-05-02T11:24:03.545Z,4.97
2019-05-02T11:26:32.554Z,5.13
2019-05-02T11:29:03.054Z,5.20
2019-05-02T11:31:32.482Z,5.10
2019-05-02T11:34:01.793Z,5.40
2019-05-02T11:36:32.560Z,4.93
2019-05-02T11:39:11.682Z,5.37
2019-05-02T11:41:31.892Z,5.17
2019-05-02T11:44:00.439Z,6.23
2019-05-02T11:46:29.003Z,5.70
2019-05-02T11:48:58.623Z,5.90
2019-05-02T11:51:27.319Z,5.13
2019-05-02T11:53:59.331Z,5.83
2019-05-02T11:56:26.102Z,5.73
2019-05-02T11:58:54.669Z,5.60
2019-05-02T12:01:35.729Z,5.63
2019-05-02T12:03:53.466Z,5.83
2019-05-02T12:06:22.487Z,5.93
2019-05-02T12:08:52.640Z,6.30
2019-05-02T12:11:22.808Z,6.00
2019-05-02T12:13:55.481Z,6.50
2019-05-02T12:16:23.016Z,5.70
2019-05-02T12:19:14.348Z,5.97
2019-05-02T12:21:41.999Z,5.43
2019-05-02T12:24:12.527Z,6.07
2019-05-02T12:26:41.946Z,6.37
2019-05-02T12:29:12.225Z,6.20
2019-05-02T12:31:42.519Z,5.43
2019-05-02T12:34:12.030Z,5.23
2019-05-02T12:36:42.597Z,4.87
2019-05-02T12:39:12.640Z,4.93
2019-05-02T12:41:42.260Z,5.80
2019-05-02T12:44:11.769Z,5.80
2019-05-02T12:46:42.140Z,5.37
2019-05-02T12:49:23.960Z,5.30
2019-05-02T12:51:42.841Z,5.53
2019-05-02T12:54:12.396Z,5.47
2019-05-02T12:56:41.854Z,5.47
2019-05-02T12:59:11.842Z,5.77
2019-05-02T13:01:42.160Z,5.80
2019-05-02T13:04:12.541Z,6.67
2019-05-02T13:06:42.176Z,6.43
2019-05-02T13:09:13.078Z,6.67
2019-05-02T13:11:59.390Z,7.43
2019-05-02T13:14:31.726Z,7.17
2019-05-02T13:17:02.087Z,7.93
2019-05-02T13:19:38.172Z,8.27
2019-05-02T13:22:05.186Z,7.70
2019-05-02T13:24:39.084Z,7.97
2019-05-02T13:27:09.482Z,8.57
2019-05-02T13:29:38.232Z,8.23
2019-05-02T13:32:13.491Z,8.27
2019-05-02T13:34:43.660Z,8.00
2019-05-02T13:37:12.627Z,8.00
2019-05-02T13:39:42.840Z,7.13
2019-05-02T13:42:12.562Z,6.80
2019-05-02T13:44:48.452Z,7.03
2019-05-02T13:47:18.840Z,6.97
2019-05-02T13:49:53.949Z,6.50
2019-05-02T13:52:19.597Z,6.17
2019-05-02T13:54:49.782Z,6.50
2019-05-02T13:57:18.281Z,6.90
2019-05-02T13:59:46.878Z,6.40
2019-05-02T14:02:35.922Z,6.07
2019-05-02T14:05:07.591Z,6.73
2019-05-02T14:07:36.203Z,6.20
2019-05-02T14:10:07.884Z,5.73
2019-05-02T14:12:44.102Z,6.50
2019-05-02T14:15:13.890Z,6.37
2019-05-02T14:17:42.424Z,6.60
2019-05-02T14:20:13.716Z,6.20
2019-05-02T14:22:42.486Z,5.77
2019-05-02T14:25:12.258Z,6.50
2019-05-02T14:27:42.179Z,6.93
2019-05-02T14:30:12.172Z,6.93
2019-05-02T14:32:42.447Z,7.07
2019-05-02T14:35:18.698Z,6.50
2019-05-02T14:37:47.723Z,6.13
2019-05-02T14:40:18.106Z,6.00
2019-05-02T14:42:46.644Z,6.43
2019-05-02T14:45:27.142Z,6.63
2019-05-02T14:47:49.707Z,6.17
2019-05-02T14:50:24.253Z,6.40
2019-05-02T14:52:46.596Z,7.27
2019-05-02T14:55:17.060Z,7.60
2019-05-02T14:57:45.869Z,7.03
2019-05-02T15:00:16.960Z,7.37
2019-05-02T15:02:49.292Z,7.03
2019-05-02T15:05:19.190Z,7.03
2019-05-02T15:07:46.260Z,6.67
2019-05-02T15:10:14.920Z,6.90
2019-05-02T15:12:43.451Z,6.77
2019-05-02T15:15:12.429Z,7.00
2019-05-02T15:17:42.105Z,6.87
2019-05-02T15:20:12.999Z,6.77
2019-05-02T15:22:42.479Z,6.83
2019-05-02T15:25:13.766Z,6.37
2019-05-02T15:27:44.595Z,6.77
2019-05-02T15:30:13.093Z,7.40
2019-05-02T15:32:46.464Z,6.87
2019-05-02T15:35:25.089Z,7.13
2019-05-02T15:37:51.808Z,7.07
2019-05-02T15:42:52.072Z,6.87
2019-05-02T15:45:23.560Z,6.90
2019-05-02T15:47:52.639Z,7.07
2019-05-02T15:50:25.625Z,6.47
2019-05-02T15:52:57.194Z,7.60
2019-05-02T15:55:33.889Z,7.07
2019-05-02T15:57:58.924Z,6.63
2019-05-02T16:00:29.297Z,6.30
2019-05-02T16:03:01.585Z,6.90
2019-05-02T16:05:28.192Z,6.60
2019-05-02T16:08:05.481Z,7.20
2019-05-02T16:10:33.382Z,6.40
2019-05-02T16:12:59.521Z,6.27
2019-05-02T16:15:27.637Z,6.00
2019-05-02T16:18:03.639Z,5.33
2019-05-02T16:20:35.150Z,5.97
2019-05-02T16:23:06.500Z,6.13
2019-05-02T16:25:35.116Z,7.00
2019-05-02T16:28:06.092Z,6.17
2019-05-02T16:30:36.956Z,6.23
2019-05-02T16:33:18.865Z,5.13
2019-05-02T16:35:41.992Z,6.03
2019-05-02T16:38:12.258Z,5.10
2019-05-02T16:40:41.902Z,6.13
2019-05-02T16:43:12.171Z,6.00
2019-05-02T16:45:41.651Z,6.33
2019-05-02T16:48:12.015Z,5.83
2019-05-02T16:50:42.053Z,6.60
2019-05-02T16:58:37.988Z,5.47
2019-05-02T17:01:06.979Z,4.80
2019-05-02T17:03:35.499Z,3.73
2019-05-02T17:06:04.007Z,3.77
2019-05-02T17:08:34.100Z,4.20
2019-05-02T17:11:04.325Z,4.13
2019-05-02T17:13:35.762Z,3.43
2019-05-02T17:16:06.818Z,3.30
2019-05-02T17:18:33.317Z,3.20
2019-05-02T17:21:01.806Z,2.60
2019-05-02T17:23:30.294Z,2.77
2019-05-02T17:25:58.776Z,2.83
2019-05-02T17:28:27.291Z,3.40
2019-05-02T17:30:55.795Z,4.70
2019-05-02T17:33:24.296Z,4.87
2019-05-02T17:35:54.312Z,3.10
2019-05-02T17:38:27.707Z,3.67
2019-05-02T17:40:54.476Z,4.10
2019-05-02T17:43:23.535Z,4.30
2019-05-02T17:45:52.027Z,4.20
2019-05-02T17:48:20.514Z,3.13
2019-05-02T17:50:56.022Z,3.43
2019-05-02T17:53:22.514Z,3.37
2019-05-02T17:55:52.601Z,2.70
2019-05-02T17:58:21.180Z,2.33
2019-05-02T18:00:55.771Z,2.00
2019-05-02T18:03:24.079Z,2.67
2019-05-02T18:05:52.875Z,2.67
2019-05-02T18:08:21.847Z,2.70
2019-05-02T18:10:55.116Z,3.43
2019-05-02T18:13:22.667Z,3.80
2019-05-02T18:15:53.257Z,3.07
2019-05-02T18:18:22.138Z,3.97
2019-05-02T18:20:52.903Z,1.97
2019-05-02T18:23:25.750Z,1.80
2019-05-02T18:25:52.548Z,1.73
2019-05-02T18:28:25.915Z,3.90
2019-05-02T18:30:52.504Z,2.20
2019-05-02T18:33:22.665Z,2.00
2019-05-02T18:35:52.608Z,2.00
2019-05-02T18:38:22.417Z,1.10
2019-05-02T18:40:52.124Z,0.90
2019-05-02T18:43:22.260Z,1.30
2019-05-02T18:45:51.566Z,1.50
2019-05-02T18:48:21.841Z,1.23
2019-05-02T18:50:52.423Z,1.77
2019-05-02T18:53:24.260Z,2.03
2019-05-02T18:55:51.899Z,1.17
2019-05-02T18:58:22.537Z,1.00
2019-05-02T19:00:51.992Z,2.37
2019-05-02T19:03:20.607Z,2.40
2019-05-02T19:05:51.703Z,3.10
2019-05-02T19:08:30.634Z,2.00
2019-05-02T19:11:04.057Z,2.07
2019-05-02T19:13:21.811Z,1.60
2019-05-02T19:15:50.325Z,1.40
2019-05-02T19:18:19.721Z,1.87
2019-05-02T19:20:57.550Z,2.23
2019-05-02T19:23:24.767Z,1.93
2019-05-02T19:25:53.326Z,2.40
2019-05-02T19:28:34.751Z,2.00
2019-05-02T19:31:02.910Z,3.00
2019-05-02T19:33:31.882Z,2.07
2019-05-02T19:36:02.659Z,2.00
2019-05-02T19:38:32.323Z,2.03
2019-05-02T19:41:05.533Z,1.77
2019-05-02T19:43:32.409Z,2.00
2019-05-02T19:46:02.244Z,2.60
2019-05-02T19:48:32.909Z,3.40
2019-05-02T19:51:02.485Z,2.50
2019-05-02T19:53:32.250Z,2.20
2019-05-02T19:56:02.971Z,2.53
2019-05-02T19:58:36.737Z,2.30
2019-05-02T20:01:02.652Z,2.57
2019-05-02T20:03:32.395Z,5.60
2019-05-02T20:06:02.310Z,4.90
2019-05-02T20:08:32.631Z,3.90
2019-05-02T20:11:02.117Z,3.20
2019-05-02T20:13:32.673Z,4.00
2019-05-02T20:16:05.813Z,4.87
2019-05-02T20:18:36.738Z,3.27
2019-05-02T20:21:21.740Z,2.80
2019-05-02T20:23:43.180Z,2.70
2019-05-02T20:26:15.402Z,2.90
2019-05-02T20:28:42.386Z,2.80
2019-05-02T20:31:12.321Z,2.90
2019-05-02T20:33:42.868Z,2.87
2019-05-02T20:36:12.423Z,3.10
2019-05-02T20:38:41.770Z,2.30
2019-05-02T20:41:12.576Z,2.70
2019-05-02T20:43:42.912Z,3.03
2019-05-02T20:46:12.121Z,3.47
2019-05-02T20:48:41.807Z,3.20
2019-05-02T20:51:12.210Z,3.03
2019-05-02T20:53:42.097Z,4.93
2019-05-02T20:56:12.386Z,5.27
2019-05-02T20:58:41.994Z,8.53
2019-05-02T21:01:12.365Z,2.80
2019-05-02T21:03:42.744Z,2.60
2019-05-02T21:06:18.861Z,3.60
2019-05-02T21:09:02.202Z,3.20
2019-05-02T21:11:32.389Z,5.07
2019-05-02T21:14:01.680Z,4.07
2019-05-02T21:16:32.116Z,3.30
2019-05-02T21:19:02.213Z,3.47
2019-05-02T21:21:32.475Z,2.80
2019-05-02T21:24:02.095Z,2.43
2019-05-02T21:26:32.704Z,2.40
2019-05-02T21:29:00.869Z,4.27
2019-05-02T21:31:29.375Z,3.40
2019-05-02T21:33:59.397Z,2.67
2019-05-02T21:36:27.871Z,2.60
2019-05-02T21:38:56.427Z,2.30
2019-05-02T21:41:24.923Z,2.60
2019-05-02T21:43:53.418Z,3.17
2019-05-02T21:46:22.443Z,2.83
2019-05-02T21:48:52.671Z,2.93
2019-05-02T21:51:34.869Z,2.70
2019-05-02T21:54:22.634Z,2.70
2019-05-02T21:56:58.657Z,2.23
2019-05-02T21:59:27.158Z,2.37
2019-05-02T22:01:57.360Z,2.17
2019-05-02T22:04:25.902Z,2.40
2019-05-02T22:06:54.395Z,2.50
2019-05-02T22:09:23.331Z,2.20
2019-05-02T22:11:52.208Z,1.87
2019-05-02T22:14:22.387Z,1.77
2019-05-02T22:16:52.950Z,1.90
2019-05-02T22:19:21.443Z,1.90
2019-05-02T22:21:49.916Z,1.83
2019-05-02T22:24:18.545Z,2.37
2019-05-02T22:26:47.032Z,2.33
2019-05-02T22:29:15.598Z,2.60
2019-05-02T22:31:44.092Z,2.10
2019-05-02T22:34:13.014Z,2.20
2019-05-02T22:36:41.883Z,2.97
2019-05-02T22:39:15.570Z,3.00
2019-05-02T22:41:44.028Z,2.93
2019-05-02T22:44:12.587Z,3.70
2019-05-02T22:46:43.426Z,2.90
2019-05-02T22:49:14.589Z,3.53
2019-05-02T22:51:43.925Z,3.43
2019-05-02T22:54:24.282Z,3.20
2019-05-02T22:56:42.803Z,3.57
2019-05-02T22:59:11.301Z,2.80
2019-05-02T23:01:41.951Z,3.10
2019-05-02T23:04:12.506Z,3.53
2019-05-02T23:06:43.952Z,3.50
2019-05-02T23:09:12.637Z,3.80
2019-05-02T23:11:42.524Z,3.13
2019-05-02T23:14:11.343Z,3.73
2019-05-02T23:16:42.320Z,3.17
2019-05-02T23:19:12.074Z,3.30
2019-05-02T23:21:42.234Z,3.00
2019-05-02T23:24:14.479Z,3.57
2019-05-02T23:26:58.998Z,4.20
2019-05-02T23:29:27.490Z,3.50
2019-05-02T23:31:56.026Z,3.57
2019-05-02T23:34:24.544Z,3.37
2019-05-02T23:36:53.098Z,3.67
2019-05-02T23:39:21.659Z,3.70
2019-05-02T23:41:50.167Z,3.40
2019-05-02T23:44:18.695Z,3.60
2019-05-02T23:46:47.169Z,3.70
2019-05-02T23:49:15.820Z,3.73
2019-05-02T23:51:44.289Z,3.17
2019-05-02T23:54:13.172Z,3.17
2019-05-02T23:56:43.062Z,3.10
2019-05-02T23:59:12.096Z,2.90
